Time;durP1;ratioP1;P1;durP2;ratioP2;P2;SDS_P1;SDS_P2;PMS_P1;PMS_P2;Temp;Humidity;BMP_temperature;BMP_pressure;BME280_temperature;BME280_humidity;BME280_pressure;Samples;Min_cycle;Max_cycle;Signal;HPM_P1;HPM_P2
2023/12/26 00:02:25;;;;;;;5.80;1.45;;;;;;;;;;4934054;29;20063;-35
2023/12/26 00:04:52;;;;;;;2.67;0.85;;;;;;;;;;4934367;29;20035;-36
2023/12/26 00:07:19;;;;;;;2.17;0.80;;;;;;;;;;4934398;29;20040;-35
2023/12/26 00:09:46;;;;;;;2.83;0.85;;;;;;;;;;4934219;29;20093;-36
2023/12/26 00:12:13;;;;;;;2.47;0.80;;;;;;;;;;4934153;29;20486;-35
2023/12/26 00:14:40;;;;;;;3.65;1.00;;;;;;;;;;4934333;29;20036;-35
2023/12/26 00:17:07;;;;;;;3.45;0.68;;;;;;;;;;4936082;29;20039;-36
2023/12/26 00:19:34;;;;;;;2.90;0.93;;;;;;;;;;4937981;29;20039;-36
2023/12/26 00:22:01;;;;;;;2.25;0.80;;;;;;;;;;4938142;29;20043;-35
2023/12/26 00:24:28;;;;;;;5.18;0.85;;;;;;;;;;4937871;29;20054;-35
2023/12/26 00:26:55;;;;;;;4.00;0.88;;;;;;;;;;4937958;29;20028;-36
2023/12/26 00:29:24;;;;;;;2.92;0.95;;;;;;;;;;4937933;29;20046;-36
2023/12/26 00:31:51;;;;;;;2.40;1.00;;;;;;;;;;4938004;29;20031;-36
2023/12/26 00:34:18;;;;;;;4.82;1.17;;;;;;;;;;4937787;29;20050;-36
2023/12/26 00:36:45;;;;;;;5.43;1.00;;;;;;;;;;4937854;29;20040;-36
2023/12/26 00:39:12;;;;;;;5.22;1.17;;;;;;;;;;4937746;29;20501;-36
2023/12/26 00:41:39;;;;;;;4.50;1.30;;;;;;;;;;4937508;29;20050;-36
2023/12/26 00:44:06;;;;;;;5.13;1.25;;;;;;;;;;4937712;29;20051;-36
2023/12/26 00:46:33;;;;;;;6.00;1.02;;;;;;;;;;4937714;29;20104;-36
2023/12/26 00:49:00;;;;;;;4.15;1.10;;;;;;;;;;4937450;29;20483;-36
2023/12/26 00:51:27;;;;;;;5.65;0.80;;;;;;;;;;4937329;29;20032;-36
2023/12/26 00:53:54;;;;;;;2.80;1.00;;;;;;;;;;4937514;29;20557;-36
2023/12/26 00:56:21;;;;;;;5.20;1.05;;;;;;;;;;4937496;29;20486;-36
2023/12/26 00:58:48;;;;;;;3.00;1.10;;;;;;;;;;4937486;29;20043;-36
2023/12/26 01:01:15;;;;;;;4.00;1.00;;;;;;;;;;4937316;29;20056;-36
2023/12/26 01:03:42;;;;;;;6.22;1.30;;;;;;;;;;4937331;29;20024;-36
2023/12/26 01:06:09;;;;;;;6.00;1.20;;;;;;;;;;4937584;29;20031;-36
2023/12/26 01:08:36;;;;;;;4.43;1.10;;;;;;;;;;4937159;29;20391;-36
2023/12/26 01:11:03;;;;;;;6.13;1.38;;;;;;;;;;4937138;29;20489;-36
2023/12/26 01:13:34;;;;;;;6.05;1.20;;;;;;;;;;4937100;29;20039;-36
2023/12/26 01:16:02;;;;;;;4.93;1.40;;;;;;;;;;4936983;29;20090;-36
2023/12/26 01:18:30;;;;;;;6.93;1.33;;;;;;;;;;4936815;29;20032;-35
2023/12/26 01:20:57;;;;;;;4.07;1.50;;;;;;;;;;4936709;29;20488;-35
2023/12/26 01:23:24;;;;;;;4.38;1.35;;;;;;;;;;4919584;29;20032;-34
2023/12/26 01:25:51;;;;;;;7.38;1.42;;;;;;;;;;4937158;29;20143;-36
2023/12/26 01:28:19;;;;;;;3.65;1.52;;;;;;;;;;4936265;29;20125;-36
2023/12/26 01:30:46;;;;;;;5.13;1.20;;;;;;;;;;4936613;29;20032;-36
2023/12/26 01:33:13;;;;;;;3.78;1.20;;;;;;;;;;4936818;29;20051;-36
2023/12/26 01:35:40;;;;;;;3.50;1.20;;;;;;;;;;4936767;29;20078;-36
2023/12/26 01:38:07;;;;;;;5.57;1.30;;;;;;;;;;4936734;29;20050;-36
2023/12/26 01:40:34;;;;;;;3.05;1.27;;;;;;;;;;4936525;29;20038;-35
2023/12/26 01:43:01;;;;;;;6.05;1.20;;;;;;;;;;4936600;29;20514;-36
2023/12/26 01:45:28;;;;;;;4.82;1.23;;;;;;;;;;4934330;29;20043;-36
2023/12/26 01:47:57;;;;;;;3.75;1.30;;;;;;;;;;4933775;29;20059;-36
2023/12/26 01:50:24;;;;;;;5.45;1.50;;;;;;;;;;4932499;29;20043;-35
2023/12/26 01:52:51;;;;;;;6.53;1.35;;;;;;;;;;4935482;29;20044;-36
2023/12/26 01:55:19;;;;;;;4.10;1.33;;;;;;;;;;4934559;29;20031;-37
2023/12/26 01:57:46;;;;;;;8.98;2.50;;;;;;;;;;4933181;29;20035;-37
2023/12/26 02:00:14;;;;;;;16.42;2.78;;;;;;;;;;4934823;29;20035;-37
2023/12/26 02:02:42;;;;;;;13.52;3.60;;;;;;;;;;4935499;29;20031;-37
2023/12/26 02:05:12;;;;;;;11.88;3.10;;;;;;;;;;4935467;29;20038;-37
2023/12/26 02:07:39;;;;;;;16.08;3.25;;;;;;;;;;4922294;29;20035;-37
2023/12/26 02:10:06;;;;;;;7.95;2.95;;;;;;;;;;4927874;29;20070;-37
2023/12/26 02:12:33;;;;;;;10.20;3.30;;;;;;;;;;4928901;29;20040;-37
2023/12/26 02:15:01;;;;;;;15.40;3.72;;;;;;;;;;4932912;29;20126;-37
2023/12/26 02:17:29;;;;;;;19.70;4.07;;;;;;;;;;4918137;29;20051;-36
2023/12/26 02:19:56;;;;;;;15.70;3.95;;;;;;;;;;4935054;29;20090;-37
2023/12/26 02:22:23;;;;;;;15.88;3.58;;;;;;;;;;4935619;29;20427;-37
2023/12/26 02:24:50;;;;;;;14.65;3.47;;;;;;;;;;4934439;29;20044;-37
2023/12/26 02:27:18;;;;;;;10.63;3.40;;;;;;;;;;4928918;29;20043;-37
2023/12/26 02:29:46;;;;;;;20.20;3.05;;;;;;;;;;4931861;29;20040;-40
2023/12/26 02:32:14;;;;;;;12.65;2.95;;;;;;;;;;4935226;29;20042;-40
2023/12/26 02:34:41;;;;;;;14.77;3.22;;;;;;;;;;4935034;29;20049;-40
2023/12/26 02:37:08;;;;;;;13.70;2.78;;;;;;;;;;4934984;29;20071;-43
2023/12/26 02:39:35;;;;;;;14.65;3.70;;;;;;;;;;4928319;29;20422;-41
2023/12/26 02:42:02;;;;;;;10.30;3.47;;;;;;;;;;4926864;29;20043;-41
2023/12/26 02:44:29;;;;;;;24.95;4.00;;;;;;;;;;4934757;29;20510;-41
2023/12/26 02:46:56;;;;;;;9.77;3.28;;;;;;;;;;4935047;29;20040;-42
2023/12/26 02:49:23;;;;;;;12.13;3.08;;;;;;;;;;4934702;29;20066;-42
2023/12/26 02:51:50;;;;;;;10.50;3.00;;;;;;;;;;4934862;29;20038;-43
2023/12/26 02:54:17;;;;;;;14.75;2.78;;;;;;;;;;4934778;29;20047;-41
2023/12/26 02:56:46;;;;;;;11.50;2.90;;;;;;;;;;4934806;29;20066;-42
2023/12/26 02:59:13;;;;;;;7.05;3.13;;;;;;;;;;4934490;29;20039;-42
2023/12/26 03:01:40;;;;;;;12.30;2.55;;;;;;;;;;4934764;29;20032;-42
2023/12/26 03:04:07;;;;;;;8.65;2.42;;;;;;;;;;4934763;29;20485;-43
2023/12/26 03:06:34;;;;;;;6.70;2.67;;;;;;;;;;4933679;29;20035;-42
2023/12/26 03:09:01;;;;;;;16.40;2.58;;;;;;;;;;4916055;29;20210;-39
2023/12/26 03:11:28;;;;;;;17.15;2.40;;;;;;;;;;4933741;29;20063;-40
2023/12/26 03:13:55;;;;;;;17.10;2.58;;;;;;;;;;4932779;29;20526;-39
2023/12/26 03:16:22;;;;;;;9.25;1.98;;;;;;;;;;4933215;29;20038;-40
2023/12/26 03:18:49;;;;;;;7.40;1.77;;;;;;;;;;4933366;29;20055;-40
2023/12/26 03:21:16;;;;;;;7.80;1.30;;;;;;;;;;4933993;29;20032;-39
2023/12/26 03:23:43;;;;;;;5.53;1.45;;;;;;;;;;4933017;29;20059;-40
2023/12/26 03:26:10;;;;;;;6.90;1.00;;;;;;;;;;4916132;29;20039;-40
2023/12/26 03:28:37;;;;;;;6.55;1.00;;;;;;;;;;4933731;29;20074;-40
2023/12/26 03:31:04;;;;;;;2.22;0.82;;;;;;;;;;4933462;29;20386;-39
2023/12/26 03:33:32;;;;;;;4.82;1.02;;;;;;;;;;4930630;29;20079;-39
2023/12/26 03:35:59;;;;;;;3.45;1.00;;;;;;;;;;4932574;29;20449;-42
2023/12/26 03:38:26;;;;;;;5.03;0.95;;;;;;;;;;4933865;29;20036;-39
2023/12/26 03:40:53;;;;;;;3.05;0.95;;;;;;;;;;4933829;29;20031;-40
2023/12/26 03:43:20;;;;;;;3.40;1.00;;;;;;;;;;4930678;29;20044;-40
2023/12/26 03:45:47;;;;;;;2.95;0.85;;;;;;;;;;4916600;29;20040;-39
2023/12/26 03:48:14;;;;;;;6.95;1.23;;;;;;;;;;4915843;29;20035;-39
2023/12/26 03:50:41;;;;;;;3.85;1.13;;;;;;;;;;4933504;29;20533;-39
2023/12/26 03:53:08;;;;;;;5.25;0.75;;;;;;;;;;4932956;29;20050;-40
2023/12/26 03:55:35;;;;;;;3.95;0.90;;;;;;;;;;4933325;29;20078;-40
2023/12/26 03:58:02;;;;;;;3.30;1.00;;;;;;;;;;4933662;29;20039;-39
2023/12/26 04:00:29;;;;;;;3.75;0.90;;;;;;;;;;4933075;29;20483;-38
2023/12/26 04:02:56;;;;;;;3.15;0.80;;;;;;;;;;4933356;29;20423;-37
2023/12/26 04:05:23;;;;;;;2.83;0.90;;;;;;;;;;4933347;29;20582;-38
2023/12/26 04:07:50;;;;;;;8.13;1.08;;;;;;;;;;4933647;29;20482;-38
2023/12/26 04:10:18;;;;;;;3.33;0.85;;;;;;;;;;4933165;29;20463;-39
2023/12/26 04:12:44;;;;;;;8.23;0.80;;;;;;;;;;4933746;29;20031;-41
2023/12/26 04:15:11;;;;;;;4.63;0.98;;;;;;;;;;4933561;29;20051;-39
2023/12/26 04:17:38;;;;;;;3.67;0.70;;;;;;;;;;4933713;29;20035;-39
2023/12/26 04:20:06;;;;;;;4.65;0.60;;;;;;;;;;4933389;29;20119;-39
2023/12/26 04:22:33;;;;;;;4.40;0.75;;;;;;;;;;4932351;29;20045;-38
2023/12/26 04:25:00;;;;;;;2.80;0.80;;;;;;;;;;4933208;29;20061;-40
2023/12/26 04:27:27;;;;;;;4.75;0.70;;;;;;;;;;4933578;29;20502;-38
2023/12/26 04:29:54;;;;;;;7.40;1.00;;;;;;;;;;4933355;29;20475;-38
2023/12/26 04:32:23;;;;;;;4.10;0.90;;;;;;;;;;4929699;29;20091;-39
2023/12/26 04:34:50;;;;;;;4.40;0.70;;;;;;;;;;4933317;29;20063;-39
2023/12/26 04:37:17;;;;;;;4.68;0.70;;;;;;;;;;4933356;29;20043;-39
2023/12/26 04:39:44;;;;;;;2.70;0.60;;;;;;;;;;4933986;29;20036;-42
2023/12/26 04:42:11;;;;;;;2.83;0.70;;;;;;;;;;4934001;29;20027;-40
2023/12/26 04:44:40;;;;;;;3.80;0.80;;;;;;;;;;4933600;29;20030;-38
2023/12/26 04:47:07;;;;;;;2.72;0.80;;;;;;;;;;4933965;29;20430;-40
2023/12/26 04:49:41;;;;;;;3.22;0.80;;;;;;;;;;4917379;29;20036;-38
2023/12/26 04:52:08;;;;;;;2.72;0.70;;;;;;;;;;4914705;29;20443;-39
2023/12/26 04:54:35;;;;;;;3.65;0.70;;;;;;;;;;4914936;29;20434;-40
2023/12/26 04:57:05;;;;;;;2.13;0.75;;;;;;;;;;4914972;29;20104;-38
2023/12/26 04:59:32;;;;;;;2.78;0.60;;;;;;;;;;4914763;29;20478;-39
2023/12/26 05:01:59;;;;;;;2.97;0.80;;;;;;;;;;4914712;29;20394;-39
2023/12/26 05:04:26;;;;;;;3.15;0.60;;;;;;;;;;4916891;29;20502;-39
2023/12/26 05:06:53;;;;;;;6.13;0.75;;;;;;;;;;4918648;29;20028;-39
2023/12/26 05:09:20;;;;;;;2.85;0.70;;;;;;;;;;4918195;29;20036;-39
2023/12/26 05:11:47;;;;;;;3.45;0.80;;;;;;;;;;4918036;29;20391;-40
2023/12/26 05:14:14;;;;;;;3.65;0.63;;;;;;;;;;4935791;29;20032;-39
2023/12/26 05:16:42;;;;;;;3.80;0.75;;;;;;;;;;4937057;29;20028;-39
2023/12/26 05:19:10;;;;;;;3.90;0.88;;;;;;;;;;4936578;29;20038;-38
2023/12/26 05:21:38;;;;;;;2.00;0.60;;;;;;;;;;4936697;29;20545;-39
2023/12/26 05:24:05;;;;;;;1.90;0.73;;;;;;;;;;4936841;29;20032;-41
2023/12/26 05:26:38;;;;;;;3.47;0.70;;;;;;;;;;4936656;29;20055;-38
2023/12/26 05:29:05;;;;;;;4.47;0.63;;;;;;;;;;4936714;29;20067;-37
2023/12/26 05:31:32;;;;;;;4.13;0.80;;;;;;;;;;4937186;29;20395;-38
2023/12/26 05:33:59;;;;;;;3.13;0.50;;;;;;;;;;4936567;29;20080;-41
2023/12/26 05:36:26;;;;;;;13.77;0.60;;;;;;;;;;4918071;29;20372;-37
2023/12/26 05:38:53;;;;;;;3.22;0.80;;;;;;;;;;4917603;29;20091;-37
2023/12/26 05:41:20;;;;;;;2.25;0.40;;;;;;;;;;4917728;29;20030;-36
2023/12/26 05:43:48;;;;;;;1.23;0.50;;;;;;;;;;4917643;29;20040;-38
2023/12/26 05:46:15;;;;;;;4.85;0.50;;;;;;;;;;4917616;29;20439;-37
2023/12/26 05:48:44;;;;;;;1.98;0.60;;;;;;;;;;4917398;29;20028;-38
2023/12/26 05:51:11;;;;;;;2.40;0.52;;;;;;;;;;4917567;29;20038;-37
2023/12/26 05:53:38;;;;;;;2.65;0.80;;;;;;;;;;4926107;29;20495;-38
2023/12/26 05:56:05;;;;;;;1.77;0.40;;;;;;;;;;4936319;29;20457;-36
2023/12/26 05:58:33;;;;;;;2.03;0.60;;;;;;;;;;4936286;29;20529;-37
2023/12/26 06:01:01;;;;;;;2.53;0.80;;;;;;;;;;4934482;29;20044;-39
2023/12/26 06:03:28;;;;;;;1.77;0.60;;;;;;;;;;4936196;29;20035;-40
2023/12/26 06:05:55;;;;;;;4.38;0.55;;;;;;;;;;4936043;29;20553;-37
2023/12/26 06:08:23;;;;;;;2.58;0.80;;;;;;;;;;4936216;29;20042;-40
2023/12/26 06:10:50;;;;;;;1.73;0.50;;;;;;;;;;4935930;29;20028;-40
2023/12/26 06:13:17;;;;;;;2.78;0.47;;;;;;;;;;4936175;29;20518;-38
2023/12/26 06:15:44;;;;;;;0.98;0.40;;;;;;;;;;4935785;29;20054;-40
2023/12/26 06:18:11;;;;;;;3.35;0.60;;;;;;;;;;4935995;29;20060;-39
2023/12/26 06:20:38;;;;;;;3.30;0.63;;;;;;;;;;4935863;29;20032;-37
2023/12/26 06:23:05;;;;;;;2.92;0.70;;;;;;;;;;4935526;29;20053;-38
2023/12/26 06:25:32;;;;;;;3.20;0.73;;;;;;;;;;4935867;29;20422;-38
2023/12/26 06:27:59;;;;;;;3.10;0.73;;;;;;;;;;4935794;29;20031;-38
2023/12/26 06:30:26;;;;;;;3.10;0.40;;;;;;;;;;4935544;29;20091;-38
2023/12/26 06:32:53;;;;;;;5.18;0.52;;;;;;;;;;4935499;29;20071;-38
2023/12/26 06:35:20;;;;;;;2.03;0.60;;;;;;;;;;4935580;29;20051;-38
2023/12/26 06:37:47;;;;;;;3.65;0.60;;;;;;;;;;4935490;29;20031;-38
2023/12/26 06:40:14;;;;;;;1.13;0.40;;;;;;;;;;4935580;29;20027;-38
2023/12/26 06:42:41;;;;;;;1.98;0.63;;;;;;;;;;4935607;29;20059;-38
2023/12/26 06:45:08;;;;;;;3.38;0.70;;;;;;;;;;4935292;29;20510;-38
2023/12/26 06:47:35;;;;;;;4.68;0.80;;;;;;;;;;4935525;29;20035;-39
2023/12/26 06:50:02;;;;;;;2.03;0.40;;;;;;;;;;4935103;29;20044;-38
2023/12/26 06:52:29;;;;;;;3.28;0.60;;;;;;;;;;4935341;29;20027;-38
2023/12/26 06:54:56;;;;;;;2.30;0.68;;;;;;;;;;4935357;29;20486;-38
2023/12/26 06:57:22;;;;;;;4.18;0.70;;;;;;;;;;4935250;29;20112;-38
2023/12/26 06:59:52;;;;;;;2.10;0.60;;;;;;;;;;4934848;29;20046;-38
2023/12/26 07:02:20;;;;;;;4.47;0.90;;;;;;;;;;4935011;29;20044;-38
2023/12/26 07:04:47;;;;;;;1.40;0.60;;;;;;;;;;4934941;29;20032;-38
2023/12/26 07:07:13;;;;;;;5.45;0.60;;;;;;;;;;4934923;29;20036;-38
2023/12/26 07:09:40;;;;;;;2.05;0.60;;;;;;;;;;4935134;29;20087;-38
2023/12/26 07:12:08;;;;;;;5.07;0.65;;;;;;;;;;4935115;29;20035;-38
2023/12/26 07:14:35;;;;;;;3.25;0.60;;;;;;;;;;4934931;29;20032;-38
2023/12/26 07:17:01;;;;;;;3.67;0.70;;;;;;;;;;4934950;29;20040;-38
2023/12/26 07:19:28;;;;;;;3.08;0.75;;;;;;;;;;4934783;29;20040;-38
2023/12/26 07:21:55;;;;;;;1.45;0.50;;;;;;;;;;4934977;29;20035;-38
2023/12/26 07:24:22;;;;;;;3.72;0.80;;;;;;;;;;4934914;29;20496;-38
2023/12/26 07:26:49;;;;;;;1.77;0.80;;;;;;;;;;4934324;29;20035;-38
2023/12/26 07:29:16;;;;;;;3.47;0.63;;;;;;;;;;4934834;29;20031;-38
2023/12/26 07:31:43;;;;;;;3.03;0.90;;;;;;;;;;4934790;29;20024;-38
2023/12/26 07:34:10;;;;;;;2.63;0.50;;;;;;;;;;4934634;29;20491;-38
2023/12/26 07:36:37;;;;;;;2.78;0.22;;;;;;;;;;4934484;29;20565;-38
2023/12/26 07:39:05;;;;;;;2.45;0.70;;;;;;;;;;4934349;29;20028;-38
2023/12/26 07:41:32;;;;;;;1.85;0.47;;;;;;;;;;4934445;29;20055;-38
2023/12/26 07:43:58;;;;;;;2.85;0.68;;;;;;;;;;4934489;29;20031;-38
2023/12/26 07:46:25;;;;;;;2.67;0.60;;;;;;;;;;4934609;29;20042;-38
2023/12/26 07:48:52;;;;;;;2.35;0.68;;;;;;;;;;4934471;29;20147;-38
2023/12/26 07:51:19;;;;;;;4.07;0.50;;;;;;;;;;4934292;29;20023;-38
2023/12/26 07:53:47;;;;;;;6.65;0.85;;;;;;;;;;4934490;29;20056;-38
2023/12/26 07:56:14;;;;;;;2.70;1.02;;;;;;;;;;4934489;29;20431;-38
2023/12/26 07:58:41;;;;;;;3.72;0.80;;;;;;;;;;4934382;29;20482;-38
2023/12/26 08:01:08;;;;;;;2.47;0.70;;;;;;;;;;4934471;29;20026;-38
2023/12/26 08:03:35;;;;;;;3.38;0.60;;;;;;;;;;4934444;29;20514;-38
2023/12/26 08:06:02;;;;;;;4.22;0.93;;;;;;;;;;4934314;29;20040;-38
2023/12/26 08:08:29;;;;;;;1.38;0.43;;;;;;;;;;4934278;29;20083;-38
2023/12/26 08:10:56;;;;;;;1.80;0.60;;;;;;;;;;4934389;29;20111;-38
2023/12/26 08:13:23;;;;;;;2.00;0.60;;;;;;;;;;4934350;29;20039;-38
2023/12/26 08:15:50;;;;;;;2.58;0.65;;;;;;;;;;4934253;29;20546;-38
2023/12/26 08:18:17;;;;;;;3.47;0.65;;;;;;;;;;4934161;29;20086;-38
2023/12/26 08:20:44;;;;;;;5.65;0.75;;;;;;;;;;4934185;29;20079;-38
2023/12/26 08:23:11;;;;;;;2.63;0.82;;;;;;;;;;4934194;29;20363;-38
2023/12/26 08:25:38;;;;;;;4.43;0.70;;;;;;;;;;4934093;29;20086;-38
2023/12/26 08:28:06;;;;;;;2.15;0.70;;;;;;;;;;4934103;29;20040;-38
2023/12/26 08:30:33;;;;;;;4.43;0.80;;;;;;;;;;4933955;29;20032;-38
2023/12/26 08:33:00;;;;;;;3.15;0.60;;;;;;;;;;4934042;29;20052;-38
2023/12/26 08:35:27;;;;;;;2.25;0.60;;;;;;;;;;4934178;29;20087;-38
2023/12/26 08:37:54;;;;;;;7.75;0.90;;;;;;;;;;4934221;29;20397;-38
2023/12/26 08:40:22;;;;;;;5.00;0.77;;;;;;;;;;4937681;29;20028;-38
2023/12/26 08:42:49;;;;;;;5.60;0.70;;;;;;;;;;4937688;29;20059;-38
2023/12/26 08:45:17;;;;;;;3.10;1.25;;;;;;;;;;4937691;29;20580;-38
2023/12/26 08:47:45;;;;;;;4.30;0.75;;;;;;;;;;4937577;29;20119;-38
2023/12/26 08:50:12;;;;;;;7.53;0.68;;;;;;;;;;4937561;29;20075;-38
2023/12/26 08:52:39;;;;;;;4.53;1.05;;;;;;;;;;4937632;29;20024;-38
2023/12/26 08:55:06;;;;;;;5.95;0.70;;;;;;;;;;4937635;29;20483;-38
2023/12/26 08:57:33;;;;;;;2.92;0.50;;;;;;;;;;4937492;29;20039;-37
2023/12/26 09:00:00;;;;;;;3.47;0.90;;;;;;;;;;4937222;29;20034;-38
2023/12/26 09:02:28;;;;;;;7.05;0.82;;;;;;;;;;4937388;29;20047;-37
2023/12/26 09:04:55;;;;;;;6.75;0.90;;;;;;;;;;4937266;29;20540;-38
2023/12/26 09:07:22;;;;;;;3.15;0.80;;;;;;;;;;4937287;29;20155;-38
2023/12/26 09:09:49;;;;;;;4.50;0.60;;;;;;;;;;4937037;29;20545;-38
2023/12/26 09:12:16;;;;;;;4.72;0.70;;;;;;;;;;4937315;29;20486;-38
2023/12/26 09:14:43;;;;;;;4.45;0.60;;;;;;;;;;4937169;29;20092;-38
2023/12/26 09:17:10;;;;;;;4.60;0.77;;;;;;;;;;4920075;29;20402;-38
2023/12/26 09:19:37;;;;;;;5.65;0.88;;;;;;;;;;4936928;29;20043;-38
2023/12/26 09:22:04;;;;;;;4.05;0.90;;;;;;;;;;4937140;29;20027;-38
2023/12/26 09:24:31;;;;;;;5.05;1.10;;;;;;;;;;4937083;29;20038;-38
2023/12/26 09:26:58;;;;;;;8.00;1.38;;;;;;;;;;4937123;29;20107;-38
2023/12/26 09:29:25;;;;;;;10.02;1.70;;;;;;;;;;4936975;29;20034;-38
2023/12/26 09:31:54;;;;;;;6.55;0.80;;;;;;;;;;4936979;29;20196;-38
2023/12/26 09:34:21;;;;;;;4.35;0.90;;;;;;;;;;4936702;29;20054;-38
2023/12/26 09:36:48;;;;;;;11.07;1.45;;;;;;;;;;4936809;29;20087;-37
2023/12/26 09:39:15;;;;;;;7.35;1.30;;;;;;;;;;4936838;29;20043;-38
2023/12/26 09:41:44;;;;;;;8.95;1.23;;;;;;;;;;4936749;29;20038;-38
2023/12/26 09:44:12;;;;;;;6.10;0.88;;;;;;;;;;4936611;29;20087;-38
2023/12/26 09:46:39;;;;;;;7.50;0.90;;;;;;;;;;4936675;29;20059;-38
2023/12/26 09:49:06;;;;;;;6.53;1.00;;;;;;;;;;4935680;29;20083;-38
2023/12/26 09:51:34;;;;;;;8.70;0.90;;;;;;;;;;4936580;29;20071;-37
2023/12/26 09:54:01;;;;;;;4.15;1.05;;;;;;;;;;4936654;29;20566;-38
2023/12/26 09:56:29;;;;;;;8.55;1.10;;;;;;;;;;4935805;29;20027;-38
2023/12/26 09:58:57;;;;;;;7.38;1.17;;;;;;;;;;4936357;29;20027;-38
2023/12/26 10:01:24;;;;;;;10.80;1.40;;;;;;;;;;4936379;29;20390;-38
2023/12/26 10:03:52;;;;;;;15.75;1.40;;;;;;;;;;4935189;29;20039;-38
2023/12/26 10:06:20;;;;;;;16.83;1.95;;;;;;;;;;4924076;29;20793;-41
2023/12/26 10:08:47;;;;;;;15.15;1.70;;;;;;;;;;4928945;29;20036;-40
2023/12/26 10:11:15;;;;;;;13.07;1.40;;;;;;;;;;4926693;29;20508;-42
2023/12/26 10:13:53;;;;;;;10.85;1.17;;;;;;;;;;4935777;29;20040;-37
2023/12/26 10:16:21;;;;;;;6.97;1.10;;;;;;;;;;4933939;29;20066;-36
2023/12/26 10:18:50;;;;;;;6.38;0.88;;;;;;;;;;4934876;29;20071;-37
2023/12/26 10:21:19;;;;;;;8.73;1.10;;;;;;;;;;4935751;29;20042;-41
2023/12/26 10:23:46;;;;;;;11.60;1.67;;;;;;;;;;4930611;29;20187;-39
2023/12/26 10:26:13;;;;;;;11.70;1.30;;;;;;;;;;4935296;29;20035;-39
2023/12/26 10:28:42;;;;;;;9.27;1.00;;;;;;;;;;4934099;29;20028;-40
2023/12/26 10:31:17;;;;;;;10.60;1.48;;;;;;;;;;4935765;29;20071;-40
2023/12/26 10:33:44;;;;;;;8.05;1.23;;;;;;;;;;4933044;29;20094;-42
2023/12/26 10:36:12;;;;;;;13.82;1.40;;;;;;;;;;4933902;29;20110;-39
2023/12/26 10:38:40;;;;;;;18.40;2.08;;;;;;;;;;4933686;29;20028;-39
2023/12/26 10:41:08;;;;;;;17.75;1.80;;;;;;;;;;4934082;29;20031;-40
2023/12/26 10:43:38;;;;;;;7.32;1.30;;;;;;;;;;4934339;29;20039;-39
2023/12/26 10:46:07;;;;;;;12.00;1.35;;;;;;;;;;4929634;29;20040;-40
2023/12/26 10:48:35;;;;;;;10.85;1.58;;;;;;;;;;4928733;29;20046;-41
2023/12/26 10:51:02;;;;;;;9.18;1.05;;;;;;;;;;4933570;29;20071;-41
2023/12/26 10:53:47;;;;;;;10.93;1.42;;;;;;;;;;4933897;29;20097;-43
2023/12/26 10:56:14;;;;;;;6.57;1.58;;;;;;;;;;4933657;29;20486;-44
2023/12/26 10:58:41;;;;;;;10.57;1.20;;;;;;;;;;4928408;29;20040;-46
2023/12/26 13:52:52;;;;;;;22.35;2.00;;;;;;;;;;4920893;29;20646;-41
2023/12/26 13:55:37;;;;;;;14.75;2.00;;;;;;;;;;4926779;29;20023;-40
2023/12/26 13:58:22;;;;;;;16.50;1.83;;;;;;;;;;4930285;29;20031;-40
2023/12/26 14:01:07;;;;;;;14.70;1.80;;;;;;;;;;4928198;29;20028;-42
2023/12/26 14:03:53;;;;;;;12.00;1.40;;;;;;;;;;4927161;29;20023;-40
2023/12/26 14:06:38;;;;;;;14.73;2.20;;;;;;;;;;4926853;29;20039;-40
2023/12/26 14:09:22;;;;;;;11.95;1.77;;;;;;;;;;4927606;29;20495;-42
2023/12/26 14:12:08;;;;;;;10.55;1.75;;;;;;;;;;4926831;29;20034;-43
2023/12/26 14:14:53;;;;;;;14.00;2.15;;;;;;;;;;4926968;29;20028;-42
2023/12/26 14:17:39;;;;;;;10.40;1.58;;;;;;;;;;4921970;29;20028;-43
2023/12/26 14:20:25;;;;;;;18.15;1.77;;;;;;;;;;4934671;29;20490;-42
2023/12/26 14:23:10;;;;;;;12.18;1.95;;;;;;;;;;4935189;29;20043;-42
2023/12/26 14:25:55;;;;;;;12.68;1.50;;;;;;;;;;4933202;29;20047;-41
2023/12/26 14:28:40;;;;;;;9.25;1.30;;;;;;;;;;4931852;29;20083;-46
2023/12/26 14:31:25;;;;;;;10.45;1.80;;;;;;;;;;4932184;29;20028;-42
2023/12/26 14:34:12;;;;;;;9.90;1.45;;;;;;;;;;4935630;29;20043;-42
2023/12/26 14:36:57;;;;;;;27.80;2.85;;;;;;;;;;4935188;29;20482;-43
2023/12/26 14:39:42;;;;;;;17.15;1.92;;;;;;;;;;4934610;29;20450;-42
2023/12/26 14:42:27;;;;;;;9.65;1.50;;;;;;;;;;4913563;29;20031;-42
2023/12/26 14:45:12;;;;;;;11.07;1.50;;;;;;;;;;4919549;29;20557;-43
2023/12/26 14:47:57;;;;;;;5.82;1.45;;;;;;;;;;4931745;29;20027;-42
2023/12/26 14:50:42;;;;;;;6.72;1.40;;;;;;;;;;4935441;29;20051;-43
2023/12/26 14:53:27;;;;;;;10.90;1.05;;;;;;;;;;4935692;29;20027;-43
2023/12/26 14:56:12;;;;;;;9.75;1.40;;;;;;;;;;4934888;29;20036;-43
2023/12/26 14:58:40;;;;;;;13.10;1.70;;;;;;;;;;4926060;29;20051;-44
2023/12/26 15:01:08;;;;;;;13.38;1.67;;;;;;;;;;4925714;29;20065;-43
2023/12/26 15:03:35;;;;;;;14.05;2.10;;;;;;;;;;4920826;29;20036;-44
2023/12/26 15:06:01;;;;;;;10.27;1.30;;;;;;;;;;4919434;29;20067;-45
2023/12/26 15:08:28;;;;;;;33.05;3.33;;;;;;;;;;4922824;29;20024;-43
2023/12/26 15:10:55;;;;;;;15.20;2.28;;;;;;;;;;4923003;29;20032;-43
2023/12/26 15:13:22;;;;;;;24.73;2.15;;;;;;;;;;4924244;29;20039;-44
2023/12/26 15:15:49;;;;;;;11.48;1.80;;;;;;;;;;4923750;29;20028;-43
2023/12/26 15:18:17;;;;;;;18.52;2.13;;;;;;;;;;4923888;29;20150;-43
2023/12/26 15:20:44;;;;;;;14.90;1.95;;;;;;;;;;4923653;29;20442;-43
2023/12/26 15:23:11;;;;;;;14.20;1.70;;;;;;;;;;4924783;29;20418;-44
2023/12/26 15:25:39;;;;;;;21.00;1.95;;;;;;;;;;4924692;29;20122;-43
2023/12/26 15:28:06;;;;;;;18.55;1.83;;;;;;;;;;4928113;29;20059;-43
2023/12/26 15:30:33;;;;;;;11.57;1.60;;;;;;;;;;4923517;29;20569;-42
2023/12/26 15:33:00;;;;;;;14.30;1.98;;;;;;;;;;4931163;29;20462;-43
2023/12/26 15:35:27;;;;;;;12.18;2.15;;;;;;;;;;4928774;29;20045;-43
2023/12/26 15:37:54;;;;;;;11.40;1.65;;;;;;;;;;4920422;29;20482;-45
2023/12/26 15:40:21;;;;;;;11.10;1.60;;;;;;;;;;4933817;29;20035;-41
2023/12/26 15:42:48;;;;;;;17.05;1.90;;;;;;;;;;4934423;29;20098;-39
2023/12/26 15:45:19;;;;;;;12.63;2.25;;;;;;;;;;4933159;29;20040;-39
2023/12/26 15:47:46;;;;;;;12.75;1.60;;;;;;;;;;4924642;29;20058;-37
2023/12/26 15:50:13;;;;;;;12.32;1.60;;;;;;;;;;4934031;29;20034;-37
2023/12/26 15:52:40;;;;;;;8.45;1.48;;;;;;;;;;4934177;29;20070;-37
2023/12/26 15:55:07;;;;;;;10.63;1.50;;;;;;;;;;4933897;29;20032;-37
2023/12/26 15:57:34;;;;;;;11.70;1.77;;;;;;;;;;4929548;29;20038;-38
2023/12/26 16:00:02;;;;;;;14.80;1.50;;;;;;;;;;4927352;29;20394;-40
2023/12/26 16:02:28;;;;;;;4.82;1.08;;;;;;;;;;4933983;29;20383;-40
2023/12/26 16:04:56;;;;;;;13.13;1.55;;;;;;;;;;4934174;29;20039;-39
2023/12/26 16:07:23;;;;;;;8.38;1.33;;;;;;;;;;4934082;29;20043;-39
2023/12/26 16:09:50;;;;;;;8.43;1.42;;;;;;;;;;4933866;29;20032;-39
2023/12/26 16:12:17;;;;;;;10.13;1.73;;;;;;;;;;4933829;29;20052;-39
2023/12/26 16:14:44;;;;;;;9.70;1.38;;;;;;;;;;4933947;29;20053;-40
2023/12/26 16:17:11;;;;;;;8.13;1.10;;;;;;;;;;4921169;29;20035;-40
2023/12/26 16:19:41;;;;;;;8.65;1.35;;;;;;;;;;4933815;29;20055;-39
2023/12/26 16:22:08;;;;;;;7.78;1.48;;;;;;;;;;4932312;29;20122;-39
2023/12/26 16:24:37;;;;;;;6.80;1.30;;;;;;;;;;4933704;29;20513;-39
2023/12/26 16:27:04;;;;;;;7.63;1.55;;;;;;;;;;4931602;29;20571;-40
2023/12/26 16:29:31;;;;;;;8.05;1.27;;;;;;;;;;4926980;29;20083;-39
2023/12/26 16:31:58;;;;;;;3.45;1.00;;;;;;;;;;4921990;29;20032;-39
2023/12/26 16:34:27;;;;;;;7.68;1.17;;;;;;;;;;4918158;29;20051;-39
2023/12/26 16:36:54;;;;;;;8.73;1.60;;;;;;;;;;4921776;29;20498;-39
2023/12/26 16:39:21;;;;;;;9.13;1.33;;;;;;;;;;4925693;29;20193;-39
2023/12/26 16:42:10;;;;;;;10.77;1.42;;;;;;;;;;4923614;29;20024;-40
2023/12/26 16:44:42;;;;;;;11.40;1.35;;;;;;;;;;4927155;29;20478;-37
2023/12/26 16:47:09;;;;;;;5.15;1.45;;;;;;;;;;4929258;29;20031;-37
2023/12/26 16:49:36;;;;;;;5.85;1.40;;;;;;;;;;4928218;29;20032;-38
2023/12/26 16:52:03;;;;;;;9.18;1.30;;;;;;;;;;4929456;29;20028;-39
2023/12/26 16:54:30;;;;;;;9.48;1.40;;;;;;;;;;4918051;29;20511;-39
2023/12/26 16:56:57;;;;;;;9.65;1.50;;;;;;;;;;4919588;29;20134;-39
2023/12/26 16:59:24;;;;;;;12.80;1.80;;;;;;;;;;4919759;29;20036;-39
2023/12/26 17:01:51;;;;;;;7.65;1.23;;;;;;;;;;4933585;29;20053;-39
2023/12/26 17:04:18;;;;;;;7.40;1.15;;;;;;;;;;4934728;29;20036;-38
2023/12/26 17:06:45;;;;;;;7.18;1.75;;;;;;;;;;4936908;29;20039;-39
2023/12/26 17:09:13;;;;;;;10.35;1.83;;;;;;;;;;4936871;29;20035;-38
2023/12/26 17:11:44;;;;;;;9.60;1.23;;;;;;;;;;4936550;29;20063;-38
2023/12/26 17:14:11;;;;;;;11.23;1.98;;;;;;;;;;4936655;29;20040;-38
2023/12/26 17:16:38;;;;;;;6.05;1.17;;;;;;;;;;4936983;29;20035;-38
2023/12/26 17:19:05;;;;;;;5.35;1.10;;;;;;;;;;4936312;29;20032;-38
2023/12/26 17:21:33;;;;;;;7.20;1.38;;;;;;;;;;4936840;29;20486;-38
2023/12/26 17:24:00;;;;;;;11.65;1.60;;;;;;;;;;4936554;29;20036;-39
2023/12/26 17:26:27;;;;;;;11.60;1.65;;;;;;;;;;4936470;29;20042;-38
2023/12/26 17:28:55;;;;;;;7.00;1.25;;;;;;;;;;4936178;29;20095;-38
2023/12/26 17:31:22;;;;;;;8.05;1.30;;;;;;;;;;4932016;29;20042;-40
2023/12/26 17:33:49;;;;;;;4.03;1.27;;;;;;;;;;4923768;29;20052;-38
2023/12/26 17:36:17;;;;;;;6.38;1.05;;;;;;;;;;4936391;29;20138;-38
2023/12/26 17:38:47;;;;;;;6.95;1.00;;;;;;;;;;4936596;29;20040;-38